Time;durP1;ratioP1;P1;durP2;ratioP2;P2;SDS_P1;SDS_P2;PMS_P1;PMS_P2;Temp;Humidity;BMP_temperature;BMP_pressure;BME280_temperature;BME280_humidity;BME280_pressure;Samples;Min_cycle;Max_cycle;Signal;HPM_P1;HPM_P2
2021/10/11 00:00:34;;;;;;;17.45;2.80;;;;;;;;;;5053055;28;20029;-76
2021/10/11 00:03:00;;;;;;;11.88;2.28;;;;;;;;;;5052834;28;20478;-77
2021/10/11 00:05:25;;;;;;;13.25;2.35;;;;;;;;;;5052463;28;20029;-76
2021/10/11 00:07:50;;;;;;;22.08;2.50;;;;;;;;;;5053131;28;20025;-76
2021/10/11 00:10:23;;;;;;;8.93;2.42;;;;;;;;;;5052843;28;20082;-76
2021/10/11 00:12:49;;;;;;;17.98;2.33;;;;;;;;;;5052805;28;20017;-77
2021/10/11 00:15:18;;;;;;;11.27;2.30;;;;;;;;;;5052480;28;20389;-77
2021/10/11 00:17:44;;;;;;;9.05;2.22;;;;;;;;;;5052499;28;20490;-77
2021/10/11 00:20:10;;;;;;;15.45;2.60;;;;;;;;;;5052679;28;20058;-78
2021/10/11 00:22:35;;;;;;;15.02;2.53;;;;;;;;;;5052737;28;20104;-76
2021/10/11 00:25:01;;;;;;;9.77;2.55;;;;;;;;;;5052579;28;20591;-77
2021/10/11 00:27:26;;;;;;;17.85;2.95;;;;;;;;;;5052412;28;20025;-76
2021/10/11 00:29:51;;;;;;;12.27;2.53;;;;;;;;;;5052658;28;20120;-77
2021/10/11 00:32:16;;;;;;;10.98;2.30;;;;;;;;;;5053056;28;20040;-77
2021/10/11 00:34:43;;;;;;;10.82;2.58;;;;;;;;;;5056058;28;20044;-77
2021/10/11 00:37:08;;;;;;;11.52;2.65;;;;;;;;;;5055754;28;20504;-77
2021/10/11 00:39:33;;;;;;;8.77;2.67;;;;;;;;;;5056117;28;20029;-77
2021/10/11 00:41:59;;;;;;;26.75;2.90;;;;;;;;;;5056076;28;20025;-77
2021/10/11 00:44:24;;;;;;;10.70;3.00;;;;;;;;;;5055958;28;20441;-77
2021/10/11 00:46:49;;;;;;;18.30;2.65;;;;;;;;;;5055973;28;20029;-77
2021/10/11 00:49:14;;;;;;;10.48;2.55;;;;;;;;;;5055988;28;20420;-77
2021/10/11 00:51:40;;;;;;;18.88;2.67;;;;;;;;;;5055997;28;20063;-76
2021/10/11 00:54:05;;;;;;;11.75;2.28;;;;;;;;;;5055628;28;20041;-77
2021/10/11 00:56:31;;;;;;;18.17;2.45;;;;;;;;;;5055565;28;20017;-76
2021/10/11 00:58:56;;;;;;;13.38;2.25;;;;;;;;;;5055957;28;20436;-77
2021/10/11 01:01:21;;;;;;;14.43;2.35;;;;;;;;;;5055688;28;20035;-77
2021/10/11 01:03:47;;;;;;;9.65;2.40;;;;;;;;;;5055678;28;20381;-77
2021/10/11 01:06:12;;;;;;;8.52;3.30;;;;;;;;;;5055881;28;20083;-77
2021/10/11 01:08:38;;;;;;;17.25;2.70;;;;;;;;;;5055642;28;20120;-76
2021/10/11 01:11:03;;;;;;;5.07;2.20;;;;;;;;;;5055498;28;20025;-77
2021/10/11 01:13:28;;;;;;;10.77;3.17;;;;;;;;;;5055484;28;20467;-77
2021/10/11 01:15:54;;;;;;;15.48;2.75;;;;;;;;;;5055398;28;20041;-77
2021/10/11 01:18:19;;;;;;;19.52;3.30;;;;;;;;;;5055112;28;20446;-77
2021/10/11 01:20:45;;;;;;;11.30;3.08;;;;;;;;;;5055428;28;20028;-77
2021/10/11 01:23:10;;;;;;;9.90;2.42;;;;;;;;;;5055270;28;20110;-78
2021/10/11 01:25:35;;;;;;;19.35;2.80;;;;;;;;;;5055378;28;20043;-77
2021/10/11 01:28:01;;;;;;;13.55;2.60;;;;;;;;;;5055193;28;20100;-77
2021/10/11 01:30:26;;;;;;;15.15;2.85;;;;;;;;;;5055192;28;20067;-77
2021/10/11 01:32:51;;;;;;;13.85;2.53;;;;;;;;;;5055178;28;20021;-77
2021/10/11 01:35:17;;;;;;;12.35;2.25;;;;;;;;;;5055020;28;20076;-77
2021/10/11 01:37:42;;;;;;;11.75;3.22;;;;;;;;;;5055168;28;20033;-77
2021/10/11 01:40:08;;;;;;;15.88;2.55;;;;;;;;;;5054911;28;20475;-77
2021/10/11 01:42:34;;;;;;;12.32;2.30;;;;;;;;;;5054915;28;20036;-77
2021/10/11 01:44:59;;;;;;;12.82;2.22;;;;;;;;;;5053890;28;20040;-76
2021/10/11 01:47:25;;;;;;;7.28;2.08;;;;;;;;;;5054790;28;20024;-77
2021/10/11 01:49:51;;;;;;;16.40;2.40;;;;;;;;;;5054870;28;20369;-77
2021/10/11 01:52:17;;;;;;;17.60;2.20;;;;;;;;;;5054661;28;20131;-76
2021/10/11 01:54:42;;;;;;;10.30;2.30;;;;;;;;;;5054763;28;20013;-77
2021/10/11 01:57:07;;;;;;;10.77;2.08;;;;;;;;;;5054668;28;20401;-77
2021/10/11 01:59:33;;;;;;;8.85;2.28;;;;;;;;;;5054420;28;20374;-77
2021/10/11 02:01:58;;;;;;;11.88;2.30;;;;;;;;;;5054349;28;20366;-77
2021/10/11 02:04:23;;;;;;;7.40;1.73;;;;;;;;;;5054352;28;20499;-77
2021/10/11 02:06:49;;;;;;;11.35;2.20;;;;;;;;;;5054196;28;20091;-77
2021/10/11 02:09:14;;;;;;;14.40;2.42;;;;;;;;;;5054424;28;20017;-77
2021/10/11 02:11:39;;;;;;;11.07;2.20;;;;;;;;;;5054444;28;20029;-78
2021/10/11 02:14:04;;;;;;;13.80;2.03;;;;;;;;;;5054275;28;20105;-77
2021/10/11 02:16:30;;;;;;;11.70;2.20;;;;;;;;;;5053983;28;20017;-76
2021/10/11 02:18:55;;;;;;;9.57;1.67;;;;;;;;;;5054202;28;20033;-77
2021/10/11 02:21:20;;;;;;;11.32;1.98;;;;;;;;;;5054194;28;20045;-77
2021/10/11 02:23:45;;;;;;;8.60;1.90;;;;;;;;;;5053870;28;20028;-76
2021/10/11 02:26:11;;;;;;;11.23;2.38;;;;;;;;;;5054068;28;20546;-77
2021/10/11 02:28:36;;;;;;;9.60;1.98;;;;;;;;;;5053963;28;20037;-77
2021/10/11 02:31:01;;;;;;;19.80;2.30;;;;;;;;;;5052735;28;20017;-76
2021/10/11 02:33:27;;;;;;;8.75;2.08;;;;;;;;;;5053999;28;20433;-77
2021/10/11 02:35:52;;;;;;;11.48;2.30;;;;;;;;;;5053952;28;20041;-77
2021/10/11 02:38:18;;;;;;;11.45;2.50;;;;;;;;;;5053855;28;20039;-77
2021/10/11 02:40:43;;;;;;;6.43;2.00;;;;;;;;;;5053880;28;20029;-77
2021/10/11 02:43:08;;;;;;;8.65;2.03;;;;;;;;;;5053430;28;20500;-77
2021/10/11 02:45:33;;;;;;;21.92;2.53;;;;;;;;;;5053705;28;20078;-77
2021/10/11 02:48:02;;;;;;;14.40;2.45;;;;;;;;;;5053739;28;20497;-77
2021/10/11 02:50:27;;;;;;;11.02;2.08;;;;;;;;;;5053681;28;20076;-76
2021/10/11 02:52:52;;;;;;;20.83;2.65;;;;;;;;;;5052362;28;20048;-77
2021/10/11 02:55:18;;;;;;;8.57;2.30;;;;;;;;;;5052163;28;20033;-78
2021/10/11 02:57:43;;;;;;;16.33;2.17;;;;;;;;;;5053740;28;20493;-77
2021/10/11 03:00:08;;;;;;;19.00;2.42;;;;;;;;;;5053535;28;20017;-77
2021/10/11 03:02:34;;;;;;;6.22;1.92;;;;;;;;;;5053214;28;20029;-77
2021/10/11 03:04:59;;;;;;;14.13;2.15;;;;;;;;;;5053396;28;20040;-76
2021/10/11 03:07:24;;;;;;;12.13;1.85;;;;;;;;;;5053157;28;20106;-77
2021/10/11 03:09:50;;;;;;;9.98;2.40;;;;;;;;;;5053148;28;20035;-78
2021/10/11 03:12:15;;;;;;;11.20;2.08;;;;;;;;;;5053356;28;20037;-77
2021/10/11 03:14:40;;;;;;;16.05;2.25;;;;;;;;;;5053534;28;20028;-77
2021/10/11 03:17:06;;;;;;;8.18;2.22;;;;;;;;;;5051954;28;20036;-77
2021/10/11 03:19:31;;;;;;;9.32;1.70;;;;;;;;;;5053302;28;20033;-77
2021/10/11 03:21:56;;;;;;;12.05;1.92;;;;;;;;;;5053272;28;20017;-78
2021/10/11 03:24:22;;;;;;;11.25;2.25;;;;;;;;;;5053447;28;20041;-76
2021/10/11 03:26:47;;;;;;;8.40;1.90;;;;;;;;;;5053269;28;20080;-77
2021/10/11 03:29:12;;;;;;;13.18;2.10;;;;;;;;;;5053132;28;20024;-76
2021/10/11 03:31:37;;;;;;;6.95;1.75;;;;;;;;;;5053178;28;20420;-77
2021/10/11 03:34:04;;;;;;;14.55;1.90;;;;;;;;;;5053164;28;20025;-77
2021/10/11 03:36:29;;;;;;;11.93;2.38;;;;;;;;;;5053262;28;20095;-77
2021/10/11 03:38:54;;;;;;;14.05;2.05;;;;;;;;;;5053078;28;20037;-76
2021/10/11 03:41:20;;;;;;;5.50;1.73;;;;;;;;;;5053131;28;20063;-76
2021/10/11 03:43:45;;;;;;;10.23;1.70;;;;;;;;;;5052988;28;20013;-77
2021/10/11 03:46:10;;;;;;;13.63;2.67;;;;;;;;;;5053070;28;20397;-77
2021/10/11 03:48:35;;;;;;;4.57;1.80;;;;;;;;;;5053044;28;20029;-77
2021/10/11 03:51:01;;;;;;;9.68;1.85;;;;;;;;;;5053048;28;20017;-76
2021/10/11 03:53:26;;;;;;;12.10;2.42;;;;;;;;;;5052914;28;20560;-77
2021/10/11 03:55:51;;;;;;;11.10;2.00;;;;;;;;;;5052950;28;20033;-77
2021/10/11 03:58:17;;;;;;;15.20;2.08;;;;;;;;;;5052571;28;20028;-77
2021/10/11 04:00:42;;;;;;;6.97;1.60;;;;;;;;;;5053058;28;20036;-77
2021/10/11 04:03:08;;;;;;;11.25;1.77;;;;;;;;;;5053123;28;20358;-79
2021/10/11 04:05:35;;;;;;;9.00;2.30;;;;;;;;;;5052905;28;20032;-77
2021/10/11 04:08:06;;;;;;;14.55;2.35;;;;;;;;;;5054888;28;20115;-77
2021/10/11 04:10:36;;;;;;;8.68;1.70;;;;;;;;;;5056747;28;20037;-77
2021/10/11 04:13:04;;;;;;;9.25;1.70;;;;;;;;;;5056590;28;20013;-77
2021/10/11 04:15:29;;;;;;;9.90;2.15;;;;;;;;;;5056583;28;20033;-77
2021/10/11 04:17:55;;;;;;;11.75;1.77;;;;;;;;;;5056535;28;20017;-77
2021/10/11 04:20:21;;;;;;;6.57;1.70;;;;;;;;;;5056273;28;20366;-77
2021/10/11 04:22:46;;;;;;;14.23;1.67;;;;;;;;;;5056467;28;20112;-77
2021/10/11 04:25:12;;;;;;;7.93;1.90;;;;;;;;;;5056055;28;20111;-77
2021/10/11 04:27:39;;;;;;;19.60;2.83;;;;;;;;;;5056508;28;20017;-78
2021/10/11 04:30:05;;;;;;;13.30;1.80;;;;;;;;;;5055040;28;20087;-77
2021/10/11 04:32:30;;;;;;;6.93;1.45;;;;;;;;;;5056306;28;20099;-77
2021/10/11 04:34:55;;;;;;;8.70;2.03;;;;;;;;;;5055871;28;20397;-77
2021/10/11 04:37:21;;;;;;;12.10;2.45;;;;;;;;;;5056579;28;20033;-78
2021/10/11 04:39:46;;;;;;;13.93;2.30;;;;;;;;;;5056135;28;20462;-77
2021/10/11 04:42:11;;;;;;;7.35;1.65;;;;;;;;;;5056153;28;20017;-77
2021/10/11 04:44:36;;;;;;;10.52;2.13;;;;;;;;;;5054770;28;20091;-77
2021/10/11 04:47:02;;;;;;;9.45;1.88;;;;;;;;;;5056037;28;20018;-77
2021/10/11 04:49:27;;;;;;;9.68;1.73;;;;;;;;;;5055718;28;20067;-77
2021/10/11 04:51:52;;;;;;;13.68;2.30;;;;;;;;;;5055410;28;20035;-78
2021/10/11 04:54:17;;;;;;;6.93;1.73;;;;;;;;;;5055958;28;20017;-77
2021/10/11 04:56:43;;;;;;;9.93;1.65;;;;;;;;;;5055497;28;20024;-77
2021/10/11 04:59:08;;;;;;;8.05;1.80;;;;;;;;;;5056113;28;20040;-77
2021/10/11 05:01:33;;;;;;;9.45;2.13;;;;;;;;;;5055795;28;20100;-78
2021/10/11 05:03:58;;;;;;;10.98;1.98;;;;;;;;;;5055495;28;20020;-77
2021/10/11 05:06:24;;;;;;;11.68;1.83;;;;;;;;;;5055692;28;20473;-77
2021/10/11 05:08:49;;;;;;;5.65;1.75;;;;;;;;;;5055681;28;20020;-77
2021/10/11 05:11:14;;;;;;;8.38;1.50;;;;;;;;;;5055684;28;20020;-77
2021/10/11 05:13:39;;;;;;;9.23;1.83;;;;;;;;;;5055316;28;20028;-76
2021/10/11 05:16:11;;;;;;;6.38;1.45;;;;;;;;;;5055454;28;20020;-77
2021/10/11 05:18:36;;;;;;;13.25;2.10;;;;;;;;;;5054248;28;20100;-77
2021/10/11 05:21:01;;;;;;;8.40;1.67;;;;;;;;;;5055376;28;20478;-77
2021/10/11 05:23:28;;;;;;;10.45;1.75;;;;;;;;;;5055360;28;20021;-77
2021/10/11 05:25:54;;;;;;;5.88;1.85;;;;;;;;;;5054935;28;20421;-76
2021/10/11 05:28:19;;;;;;;7.10;1.73;;;;;;;;;;5055211;28;20036;-76
2021/10/11 05:30:44;;;;;;;14.90;2.22;;;;;;;;;;5055310;28;20044;-77
2021/10/11 05:33:10;;;;;;;10.00;2.08;;;;;;;;;;5053950;28;20055;-79
2021/10/11 05:35:38;;;;;;;7.68;3.65;;;;;;;;;;5054693;28;20048;-77
2021/10/11 05:38:04;;;;;;;8.63;2.00;;;;;;;;;;5055149;28;20074;-76
2021/10/11 05:40:30;;;;;;;12.05;1.80;;;;;;;;;;5055245;28;20025;-77
2021/10/11 05:42:55;;;;;;;10.30;2.30;;;;;;;;;;5054986;28;20382;-77
2021/10/11 05:45:21;;;;;;;7.53;2.10;;;;;;;;;;5054873;28;20424;-76
2021/10/11 05:47:46;;;;;;;7.65;1.65;;;;;;;;;;5054899;28;20359;-77
2021/10/11 05:50:11;;;;;;;8.43;1.92;;;;;;;;;;5054881;28;20087;-78
2021/10/11 05:52:37;;;;;;;10.18;2.15;;;;;;;;;;5054837;28;20029;-77
2021/10/11 05:55:03;;;;;;;14.15;1.85;;;;;;;;;;5054801;28;20048;-77
2021/10/11 05:57:28;;;;;;;9.75;1.58;;;;;;;;;;5054616;28;20036;-77
2021/10/11 05:59:53;;;;;;;9.40;1.52;;;;;;;;;;5054396;28;20009;-77
2021/10/11 06:02:19;;;;;;;4.88;1.50;;;;;;;;;;5054612;28;20103;-78
2021/10/11 06:04:44;;;;;;;13.32;2.10;;;;;;;;;;5053162;28;20477;-77
2021/10/11 06:07:09;;;;;;;10.10;1.58;;;;;;;;;;5054223;28;20012;-77
2021/10/11 06:09:34;;;;;;;5.63;1.60;;;;;;;;;;5054431;28;20013;-76
2021/10/11 06:12:00;;;;;;;11.18;1.73;;;;;;;;;;5054407;28;20033;-76
2021/10/11 06:14:25;;;;;;;10.77;2.17;;;;;;;;;;5054282;28;20017;-77
2021/10/11 06:16:50;;;;;;;9.98;2.30;;;;;;;;;;5054024;28;20019;-78
2021/10/11 06:19:16;;;;;;;5.32;1.52;;;;;;;;;;5054132;28;20033;-77
2021/10/11 06:21:41;;;;;;;11.02;1.80;;;;;;;;;;5054342;28;20043;-76
2021/10/11 06:24:09;;;;;;;12.10;1.90;;;;;;;;;;5053952;28;20462;-76
2021/10/11 06:26:34;;;;;;;17.55;2.30;;;;;;;;;;5054136;28;20041;-77
2021/10/11 06:29:00;;;;;;;7.43;1.83;;;;;;;;;;5054054;28;20377;-77
2021/10/11 06:31:25;;;;;;;8.75;1.90;;;;;;;;;;5053286;28;20024;-76
2021/10/11 06:33:50;;;;;;;6.88;1.73;;;;;;;;;;5053985;28;20072;-77
2021/10/11 06:36:16;;;;;;;7.53;1.70;;;;;;;;;;5054246;28;20401;-77
2021/10/11 06:38:41;;;;;;;12.82;2.15;;;;;;;;;;5054376;28;20103;-78
2021/10/11 06:41:06;;;;;;;7.70;1.65;;;;;;;;;;5054282;28;20028;-77
2021/10/11 06:43:32;;;;;;;3.88;1.45;;;;;;;;;;5052647;28;20047;-77
2021/10/11 06:45:57;;;;;;;13.02;1.77;;;;;;;;;;5053839;28;20033;-77
2021/10/11 06:48:22;;;;;;;14.63;1.88;;;;;;;;;;5053498;28;20374;-77
2021/10/11 06:50:48;;;;;;;7.25;2.00;;;;;;;;;;5053810;28;20017;-77
2021/10/11 06:53:13;;;;;;;6.68;1.42;;;;;;;;;;5053700;28;20100;-77
2021/10/11 06:55:39;;;;;;;14.77;2.05;;;;;;;;;;5052483;28;20029;-77
2021/10/11 06:58:04;;;;;;;6.35;2.15;;;;;;;;;;5053548;28;20461;-78
2021/10/11 07:00:30;;;;;;;8.88;1.63;;;;;;;;;;5053571;28;20028;-77
2021/10/11 07:02:55;;;;;;;11.35;1.77;;;;;;;;;;5053306;28;20115;-77
2021/10/11 07:05:20;;;;;;;19.67;2.28;;;;;;;;;;5053616;28;20118;-78
2021/10/11 07:07:47;;;;;;;9.85;2.15;;;;;;;;;;5053585;28;20096;-77
2021/10/11 07:10:12;;;;;;;12.77;2.25;;;;;;;;;;5052221;28;20063;-77
2021/10/11 07:12:38;;;;;;;8.48;1.75;;;;;;;;;;5053520;28;20374;-76
2021/10/11 07:15:03;;;;;;;7.88;2.35;;;;;;;;;;5053528;28;20021;-76
2021/10/11 07:17:29;;;;;;;3.42;1.60;;;;;;;;;;5052182;28;20481;-78
2021/10/11 07:19:54;;;;;;;11.07;1.75;;;;;;;;;;5053265;28;20096;-78
2021/10/11 07:22:19;;;;;;;9.73;1.55;;;;;;;;;;5052894;28;20123;-80
2021/10/11 07:24:45;;;;;;;12.45;2.65;;;;;;;;;;5053096;28;20051;-78
2021/10/11 07:27:11;;;;;;;9.75;2.45;;;;;;;;;;5053394;28;20021;-77
2021/10/11 07:29:37;;;;;;;17.88;2.30;;;;;;;;;;5053211;28;20066;-79
2021/10/11 07:32:03;;;;;;;42.78;4.28;;;;;;;;;;5052856;28;20083;-78
2021/10/11 07:34:28;;;;;;;48.40;4.85;;;;;;;;;;5045480;28;20472;-79
2021/10/11 07:36:53;;;;;;;18.10;2.30;;;;;;;;;;5053073;28;20024;-79
2021/10/11 07:39:18;;;;;;;37.47;3.85;;;;;;;;;;5053104;28;20037;-79
2021/10/11 07:41:44;;;;;;;13.18;2.17;;;;;;;;;;5053040;28;20524;-79
2021/10/11 07:44:10;;;;;;;11.85;2.28;;;;;;;;;;5065896;28;20031;-79
2021/10/11 07:46:37;;;;;;;37.03;3.15;;;;;;;;;;5063199;28;20069;-79
2021/10/11 07:49:02;;;;;;;61.55;4.20;;;;;;;;;;5068656;28;20024;-78
2021/10/11 07:51:28;;;;;;;8.38;1.83;;;;;;;;;;5061227;28;20054;-79
2021/10/11 07:53:53;;;;;;;20.45;2.38;;;;;;;;;;5073111;28;20033;-78
2021/10/11 07:56:18;;;;;;;180.60;9.13;;;;;;;;;;5062116;28;20027;-80
2021/10/11 07:58:43;;;;;;;17.13;2.15;;;;;;;;;;5067110;28;20017;-79
2021/10/11 08:01:09;;;;;;;49.03;4.25;;;;;;;;;;5068700;28;20099;-80
2021/10/11 08:03:34;;;;;;;40.20;2.97;;;;;;;;;;5059892;28;20100;-79
2021/10/11 08:06:03;;;;;;;9.30;1.50;;;;;;;;;;5062584;28;20116;-80
2021/10/11 08:08:29;;;;;;;5.88;1.65;;;;;;;;;;5065555;28;20033;-79
2021/10/11 08:10:54;;;;;;;39.47;2.60;;;;;;;;;;5054799;28;20446;-79
2021/10/11 08:13:20;;;;;;;16.35;2.00;;;;;;;;;;5068489;28;20025;-81
2021/10/11 08:15:45;;;;;;;14.70;2.50;;;;;;;;;;5056306;28;20488;-79
2021/10/11 08:18:11;;;;;;;7.75;1.70;;;;;;;;;;5057098;28;20100;-80
2021/10/11 08:20:37;;;;;;;13.95;2.20;;;;;;;;;;5051997;28;20021;-80
2021/10/11 08:23:02;;;;;;;6.93;1.58;;;;;;;;;;5052921;28;20478;-80
2021/10/11 08:25:27;;;;;;;11.43;2.28;;;;;;;;;;5053004;28;20440;-79
2021/10/11 08:27:53;;;;;;;6.47;1.60;;;;;;;;;;5053176;28;20025;-79
2021/10/11 08:30:18;;;;;;;9.98;1.88;;;;;;;;;;5052778;28;20036;-79
2021/10/11 08:32:43;;;;;;;23.08;2.42;;;;;;;;;;5053078;28;20090;-79
2021/10/11 08:35:09;;;;;;;7.95;1.63;;;;;;;;;;5054107;28;20051;-80
2021/10/11 08:37:34;;;;;;;6.82;1.77;;;;;;;;;;5063837;28;20029;-79
2021/10/11 08:39:59;;;;;;;12.38;1.55;;;;;;;;;;5071673;28;20021;-79
2021/10/11 08:42:24;;;;;;;7.18;1.30;;;;;;;;;;5071820;28;20024;-79
2021/10/11 08:44:50;;;;;;;7.68;1.80;;;;;;;;;;5048963;28;20041;-82
2021/10/11 08:47:16;;;;;;;6.22;1.30;;;;;;;;;;5051841;28;20028;-80
2021/10/11 08:49:42;;;;;;;6.43;1.70;;;;;;;;;;5051412;28;20075;-79
2021/10/11 08:52:08;;;;;;;5.88;1.40;;;;;;;;;;5050865;28;20079;-79
2021/10/11 08:54:34;;;;;;;7.32;1.40;;;;;;;;;;5050879;28;20025;-80
2021/10/11 08:57:00;;;;;;;10.02;2.28;;;;;;;;;;5051578;28;20032;-78
2021/10/11 08:59:28;;;;;;;9.82;2.45;;;;;;;;;;5050745;28;20045;-80
2021/10/11 09:02:06;;;;;;;7.32;1.23;;;;;;;;;;5051849;28;20021;-79
2021/10/11 09:04:32;;;;;;;5.53;1.45;;;;;;;;;;5051396;28;20029;-79
2021/10/11 09:07:04;;;;;;;4.78;1.42;;;;;;;;;;5051452;28;20049;-84
2021/10/11 09:09:30;;;;;;;5.55;1.40;;;;;;;;;;5050847;28;20060;-81
2021/10/11 09:11:55;;;;;;;5.45;1.38;;;;;;;;;;5051807;28;20072;-79
2021/10/11 09:14:21;;;;;;;4.82;1.33;;;;;;;;;;5051549;28;20477;-80
2021/10/11 09:16:54;;;;;;;4.43;1.02;;;;;;;;;;5051576;28;20020;-79
2021/10/11 09:19:24;;;;;;;6.20;1.65;;;;;;;;;;5051172;28;20056;-79
2021/10/11 09:21:49;;;;;;;5.38;1.60;;;;;;;;;;5050811;28;20458;-79
2021/10/11 09:24:18;;;;;;;8.40;1.30;;;;;;;;;;5051582;28;20107;-79
2021/10/11 09:27:09;;;;;;;10.30;1.33;;;;;;;;;;5051329;28;20076;-80
2021/10/11 09:29:35;;;;;;;7.03;1.75;;;;;;;;;;5050301;28;20041;-79
2021/10/11 09:32:08;;;;;;;15.55;2.28;;;;;;;;;;5050834;28;20049;-80
2021/10/11 09:34:35;;;;;;;6.33;1.70;;;;;;;;;;5009425;28;1183619;-80
2021/10/11 09:37:04;;;;;;;7.43;1.70;;;;;;;;;;5052278;28;20029;-79
2021/10/11 09:39:31;;;;;;;8.77;2.25;;;;;;;;;;5051532;28;20016;-79
2021/10/11 09:41:57;;;;;;;12.32;1.60;;;;;;;;;;5051767;28;20111;-79
2021/10/11 09:44:22;;;;;;;6.47;1.55;;;;;;;;;;5047134;28;20140;-83
2021/10/11 09:46:52;;;;;;;3.67;1.58;;;;;;;;;;5050059;28;20021;-79
2021/10/11 09:49:18;;;;;;;7.57;1.80;;;;;;;;;;5049428;28;20098;-83
2021/10/11 09:51:43;;;;;;;5.70;1.83;;;;;;;;;;5052232;28;20425;-80
2021/10/11 09:54:08;;;;;;;8.80;2.35;;;;;;;;;;5051758;28;20017;-80
2021/10/11 09:56:34;;;;;;;10.13;2.22;;;;;;;;;;5051434;28;20063;-79
2021/10/11 09:59:00;;;;;;;6.38;1.80;;;;;;;;;;5051132;28;20025;-84
2021/10/11 10:01:26;;;;;;;8.90;2.15;;;;;;;;;;5051819;28;20021;-79
2021/10/11 10:03:53;;;;;;;15.07;2.42;;;;;;;;;;5052131;28;20554;-79
2021/10/11 10:06:18;;;;;;;8.40;1.88;;;;;;;;;;5050333;28;20037;-79
2021/10/11 10:08:47;;;;;;;11.45;1.92;;;;;;;;;;5045772;28;20021;-80
2021/10/11 10:11:12;;;;;;;4.82;1.38;;;;;;;;;;5049868;28;20108;-79
2021/10/11 10:13:46;;;;;;;8.15;1.73;;;;;;;;;;5050793;28;20115;-80
2021/10/11 10:16:13;;;;;;;7.60;1.63;;;;;;;;;;5049242;28;20025;-79
2021/10/11 10:18:39;;;;;;;6.60;1.50;;;;;;;;;;5050775;28;20025;-79
2021/10/11 10:21:04;;;;;;;5.93;1.48;;;;;;;;;;5050226;28;20021;-79
2021/10/11 10:23:31;;;;;;;14.07;2.28;;;;;;;;;;5051315;28;20484;-79
2021/10/11 10:25:57;;;;;;;10.82;1.80;;;;;;;;;;5050713;28;20041;-79
2021/10/11 10:28:24;;;;;;;10.65;2.20;;;;;;;;;;5050521;28;20571;-80
2021/10/11 10:31:00;;;;;;;4.60;1.35;;;;;;;;;;5049955;28;20020;-80
2021/10/11 10:33:25;;;;;;;;;;;;;;;;;;5050821;28;20039;-79
2021/10/11 10:35:50;;;;;;;9.10;1.83;;;;;;;;;;5049992;28;19917;-79
2021/10/11 10:38:16;;;;;;;9.82;2.58;;;;;;;;;;5050726;28;20033;-79
2021/10/11 10:40:42;;;;;;;9.38;1.80;;;;;;;;;;5051009;28;20068;-79
2021/10/11 10:43:09;;;;;;;7.90;1.50;;;;;;;;;;5050957;28;20044;-79
2021/10/11 10:45:36;;;;;;;15.52;2.45;;;;;;;;;;5050636;28;20814;-79
2021/10/11 10:48:01;;;;;;;11.52;1.83;;;;;;;;;;5050922;28;20089;-79
2021/10/11 10:50:28;;;;;;;7.55;1.70;;;;;;;;;;5050582;28;20103;-81
2021/10/11 10:52:57;;;;;;;7.85;2.20;;;;;;;;;;5050545;28;20436;-79
2021/10/11 10:55:22;;;;;;;13.75;2.60;;;;;;;;;;5046772;28;20033;-79
2021/10/11 10:57:52;;;;;;;8.75;1.98;;;;;;;;;;5050648;28;20509;-79
2021/10/11 11:00:17;;;;;;;7.60;1.67;;;;;;;;;;5050289;28;20028;-80
2021/10/11 11:02:52;;;;;;;7.40;1.30;;;;;;;;;;5049761;28;20036;-80
2021/10/11 11:05:18;;;;;;;11.18;1.80;;;;;;;;;;5048957;28;20413;-80
2021/10/11 11:07:44;;;;;;;9.18;1.60;;;;;;;;;;5049974;28;20024;-79
2021/10/11 11:10:11;;;;;;;9.10;1.92;;;;;;;;;;5048303;28;20349;-79
2021/10/11 11:12:37;;;;;;;10.57;1.55;;;;;;;;;;5049681;28;20104;-79
2021/10/11 11:15:03;;;;;;;7.10;1.05;;;;;;;;;;5049442;28;20100;-80
2021/10/11 11:17:30;;;;;;;11.82;2.35;;;;;;;;;;5049925;28;20450;-80
2021/10/11 11:19:55;;;;;;;7.55;1.58;;;;;;;;;;5050206;28;20013;-79
2021/10/11 11:22:27;;;;;;;7.45;1.70;;;;;;;;;;5048955;28;20404;-79
2021/10/11 11:24:53;;;;;;;13.02;1.58;;;;;;;;;;5049642;28;20025;-81
2021/10/11 11:27:44;;;;;;;15.07;2.28;;;;;;;;;;5049710;28;20020;-79
2021/10/11 11:30:14;;;;;;;8.30;1.40;;;;;;;;;;5048762;28;20039;-79
2021/10/11 11:32:47;;;;;;;12.43;1.58;;;;;;;;;;5049101;28;20445;-79
2021/10/11 11:35:25;;;;;;;11.68;2.65;;;;;;;;;;5048708;28;20528;-79
2021/10/11 11:37:52;;;;;;;15.30;1.60;;;;;;;;;;5050438;28;20019;-79
2021/10/11 11:40:19;;;;;;;7.70;1.50;;;;;;;;;;5049641;28;20166;-79
2021/10/11 11:42:45;;;;;;;16.00;1.83;;;;;;;;;;5049663;28;20070;-81
2021/10/11 11:45:10;;;;;;;7.43;1.23;;;;;;;;;;5050302;28;20029;-79
2021/10/11 11:47:36;;;;;;;7.22;1.48;;;;;;;;;;5049799;28;20047;-78
2021/10/11 11:50:01;;;;;;;10.40;1.10;;;;;;;;;;5049974;28;20389;-78
2021/10/11 11:52:33;;;;;;;10.50;1.65;;;;;;;;;;5049855;28;20067;-79
2021/10/11 11:54:59;;;;;;;7.25;1.67;;;;;;;;;;5049743;28;20029;-78
2021/10/11 11:57:24;;;;;;;14.27;3.28;;;;;;;;;;5050050;28;20105;-79
2021/10/11 11:59:49;;;;;;;10.48;2.05;;;;;;;;;;5050559;28;20024;-79
2021/10/11 12:02:16;;;;;;;13.90;2.38;;;;;;;;;;5049374;28;20037;-79
2021/10/11 12:04:45;;;;;;;6.60;1.65;;;;;;;;;;5049157;28;20377;-78
2021/10/11 12:07:11;;;;;;;11.63;1.67;;;;;;;;;;5049662;28;20537;-78
2021/10/11 12:09:36;;;;;;;12.48;1.67;;;;;;;;;;5049380;28;20503;-79
2021/10/11 12:12:03;;;;;;;7.28;1.30;;;;;;;;;;5049423;28;20021;-79
2021/10/11 12:14:29;;;;;;;13.20;1.60;;;;;;;;;;5049564;28;20025;-83
2021/10/11 12:17:07;;;;;;;14.27;1.60;;;;;;;;;;5050311;28;20025;-79
2021/10/11 12:19:33;;;;;;;10.35;1.20;;;;;;;;;;5042866;28;20473;-80
2021/10/11 12:21:59;;;;;;;9.50;1.80;;;;;;;;;;5048662;28;20096;-79
2021/10/11 12:24:31;;;;;;;6.57;1.17;;;;;;;;;;5048818;28;20064;-80
2021/10/11 12:26:57;;;;;;;9.75;1.23;;;;;;;;;;5048525;28;20020;-80
2021/10/11 12:29:23;;;;;;;9.60;1.30;;;;;;;;;;5051750;28;20100;-81
2021/10/11 12:31:56;;;;;;;8.90;1.58;;;;;;;;;;5052659;28;20013;-80
2021/10/11 12:34:25;;;;;;;10.27;2.00;;;;;;;;;;5052284;28;20028;-79
2021/10/11 12:36:52;;;;;;;10.80;1.92;;;;;;;;;;5051668;28;20385;-79
2021/10/11 12:39:18;;;;;;;12.15;1.70;;;;;;;;;;5052231;28;20097;-79
2021/10/11 12:41:50;;;;;;;9.63;1.77;;;;;;;;;;5052257;28;20112;-80
2021/10/11 12:44:24;;;;;;;8.63;1.67;;;;;;;;;;5052088;28;20500;-80
2021/10/11 12:46:49;;;;;;;14.82;2.08;;;;;;;;;;5051737;28;20025;-79
2021/10/11 12:49:16;;;;;;;11.63;1.85;;;;;;;;;;5052519;28;20033;-79
2021/10/11 12:51:41;;;;;;;11.63;2.55;;;;;;;;;;5051380;28;20060;-78
2021/10/11 12:54:11;;;;;;;9.85;2.22;;;;;;;;;;5051733;28;20508;-80
2021/10/11 12:56:43;;;;;;;8.77;1.50;;;;;;;;;;5051712;28;20393;-79
2021/10/11 12:59:09;;;;;;;10.73;1.55;;;;;;;;;;5052092;28;20029;-80
2021/10/11 13:01:35;;;;;;;7.47;1.52;;;;;;;;;;5051926;28;20489;-80
2021/10/11 13:04:00;;;;;;;7.30;1.65;;;;;;;;;;5051973;28;20021;-79
2021/10/11 13:06:27;;;;;;;8.13;1.60;;;;;;;;;;5051578;28;20146;-80
2021/10/11 13:08:56;;;;;;;9.25;1.30;;;;;;;;;;5052821;28;20037;-79
2021/10/11 13:11:21;;;;;;;10.15;1.63;;;;;;;;;;5052755;28;20024;-79
2021/10/11 13:13:46;;;;;;;7.68;2.05;;;;;;;;;;5052025;28;20029;-78
2021/10/11 13:16:12;;;;;;;9.32;2.00;;;;;;;;;;5052532;28;20419;-79
2021/10/11 13:18:37;;;;;;;8.25;1.55;;;;;;;;;;5052010;28;20037;-79
2021/10/11 13:21:02;;;;;;;11.88;1.38;;;;;;;;;;5052200;28;20052;-79
2021/10/11 13:23:28;;;;;;;10.55;2.08;;;;;;;;;;5052292;28;20039;-79
2021/10/11 13:25:53;;;;;;;6.43;1.67;;;;;;;;;;5051397;28;20183;-79
2021/10/11 13:28:18;;;;;;;13.93;2.05;;;;;;;;;;5051825;28;20382;-78
2021/10/11 13:31:35;;;;;;;10.60;1.48;;;;;;;;;;5051603;28;20028;-78
2021/10/11 14:28:15;;;;;;;7.47;2.10;;;;;;;;;;5050246;28;20087;-80
2021/10/11 16:00:24;;;;;;;16.10;1.67;;;;;;;;;;5048602;28;20048;-78
2021/10/11 16:02:52;;;;;;;8.10;1.45;;;;;;;;;;5049500;28;20481;-79
2021/10/11 16:05:18;;;;;;;10.10;1.30;;;;;;;;;;5052910;28;20037;-79
2021/10/11 16:07:43;;;;;;;7.55;2.05;;;;;;;;;;5053195;28;20024;-78
2021/10/11 16:10:09;;;;;;;8.27;1.13;;;;;;;;;;5051987;28;20071;-79
2021/10/11 16:12:35;;;;;;;8.25;1.10;;;;;;;;;;5051518;28;20063;-79
2021/10/11 16:15:00;;;;;;;8.05;1.55;;;;;;;;;;5052310;28;20056;-79
2021/10/11 16:17:25;;;;;;;17.08;1.65;;;;;;;;;;5051671;28;20024;-78
2021/10/11 16:19:51;;;;;;;13.18;3.72;;;;;;;;;;5053543;28;20044;-79
2021/10/11 16:22:16;;;;;;;9.57;2.22;;;;;;;;;;5052445;28;20024;-78
2021/10/11 16:24:42;;;;;;;6.53;1.90;;;;;;;;;;5052539;28;20025;-78
2021/10/11 16:27:07;;;;;;;10.48;1.83;;;;;;;;;;5051605;28;20136;-79
2021/10/11 16:29:32;;;;;;;9.25;1.95;;;;;;;;;;5052655;28;20021;-79
2021/10/11 16:31:57;;;;;;;14.20;2.30;;;;;;;;;;5052344;28;20027;-77
2021/10/11 16:34:25;;;;;;;10.15;2.10;;;;;;;;;;5051702;28;20057;-78
2021/10/11 16:36:50;;;;;;;11.55;2.25;;;;;;;;;;5052057;28;20032;-78
2021/10/11 16:39:15;;;;;;;14.10;3.00;;;;;;;;;;5051987;28;20021;-78
2021/10/11 16:41:41;;;;;;;12.95;2.67;;;;;;;;;;5052317;28;20052;-77
2021/10/11 16:44:06;;;;;;;7.80;2.00;;;;;;;;;;5052399;28;20017;-78
2021/10/11 16:46:32;;;;;;;20.20;3.10;;;;;;;;;;5052821;28;20029;-77
2021/10/11 16:48:57;;;;;;;9.63;2.10;;;;;;;;;;5051928;28;20037;-80
2021/10/11 16:51:22;;;;;;;9.70;1.98;;;;;;;;;;5051185;28;20108;-79
2021/10/11 16:56:25;;;;;;;16.60;3.80;;;;;;;;;;5048960;28;20037;-78